createdAt,value
2022-12-01T00:03:33.458Z,103049.50
2022-12-01T00:08:36.176Z,103032.16
2022-12-01T00:13:38.950Z,103027.41
2022-12-01T00:18:41.881Z,102998.16
2022-12-01T00:23:44.741Z,102998.72
2022-12-01T00:28:51.861Z,103013.66
2022-12-01T00:33:55.020Z,103006.06
2022-12-01T00:38:58.096Z,103013.50
2022-12-01T00:44:00.758Z,103007.59
2022-12-01T00:49:03.981Z,102992.00
2022-12-01T00:54:06.739Z,103001.69
2022-12-01T00:59:09.455Z,103001.16
2022-12-01T01:04:12.813Z,103003.50
2022-12-01T01:09:17.983Z,102978.28
2022-12-01T01:14:21.715Z,102991.81
2022-12-01T01:19:24.579Z,102987.19
2022-12-01T01:24:27.084Z,102979.22
2022-12-01T01:29:29.791Z,102980.66
2022-12-01T01:34:32.620Z,102958.63
2022-12-01T01:39:35.345Z,102972.03
2022-12-01T01:44:50.517Z,102926.59
2022-12-01T01:49:54.513Z,102964.97
2022-12-01T01:54:57.325Z,102909.16
2022-12-01T02:00:07.921Z,102964.97
2022-12-01T02:05:23.383Z,102970.00
2022-12-01T02:10:43.735Z,102967.56
2022-12-01T02:15:58.143Z,102976.81
2022-12-01T02:21:16.928Z,102978.13
2022-12-01T02:26:44.141Z,102980.34
2022-12-01T02:31:57.727Z,102975.97
2022-12-01T02:37:11.456Z,102976.97
2022-12-01T02:42:39.463Z,102962.84
2022-12-01T02:47:42.612Z,102964.13
2022-12-01T02:52:46.042Z,102967.63
2022-12-01T02:57:48.691Z,102916.56
2022-12-01T03:02:57.094Z,102934.19
2022-12-01T03:08:20.315Z,102953.69
2022-12-01T03:13:50.115Z,102947.25
2022-12-01T03:19:00.623Z,102951.59
2022-12-01T03:24:09.352Z,102945.91
2022-12-01T03:29:17.042Z,102910.75
2022-12-01T03:34:43.247Z,102919.41
2022-12-01T03:39:47.275Z,102925.34
2022-12-01T03:44:53.868Z,102910.81
2022-12-01T03:49:57.104Z,102939.28
2022-12-01T03:55:14.952Z,102911.84
2022-12-01T04:00:17.879Z,102927.41
2022-12-01T04:05:25.164Z,102926.38
2022-12-01T04:10:28.217Z,102925.31
2022-12-01T04:15:31.083Z,102924.75
2022-12-01T04:20:33.847Z,102915.19
2022-12-01T04:25:36.537Z,102922.63
2022-12-01T04:30:39.218Z,102932.56
2022-12-01T04:35:41.828Z,102933.47
2022-12-01T04:40:44.453Z,102924.19
2022-12-01T04:45:47.130Z,102911.84
2022-12-01T04:50:50.168Z,102926.72
2022-12-01T04:55:52.883Z,102931.47
2022-12-01T05:00:55.596Z,102921.41
2022-12-01T05:06:06.178Z,102930.53
2022-12-01T05:11:10.551Z,102947.56
2022-12-01T05:16:19.253Z,102927.25
2022-12-01T05:21:21.994Z,102914.59
2022-12-01T05:26:24.629Z,102917.03
2022-12-01T05:31:27.450Z,102898.69
2022-12-01T05:36:30.570Z,102916.03
2022-12-01T05:41:33.222Z,102905.59
2022-12-01T05:46:35.922Z,102913.41
2022-12-01T05:51:38.631Z,102897.25
2022-12-01T05:56:41.450Z,102902.91
2022-12-01T06:01:44.182Z,102909.22
2022-12-01T06:06:47.024Z,102890.88
2022-12-01T06:11:52.523Z,102897.59
2022-12-01T06:16:55.495Z,102879.44
2022-12-01T06:21:58.596Z,102870.09
2022-12-01T06:27:01.296Z,102872.63
2022-12-01T06:32:04.576Z,102859.78
2022-12-01T06:37:07.316Z,102856.16
2022-12-01T06:42:10.284Z,102873.50
2022-12-01T06:47:12.923Z,102871.38
2022-12-01T06:52:15.556Z,102870.72
2022-12-01T06:57:18.337Z,102863.84
2022-12-01T07:02:21.447Z,102866.97
2022-12-01T07:07:24.629Z,102870.06
2022-12-01T07:12:30.937Z,102860.06
2022-12-01T07:17:34.216Z,102861.19
2022-12-01T07:22:36.871Z,102858.66
2022-12-01T07:27:39.513Z,102843.47
2022-12-01T07:32:42.349Z,102844.88
2022-12-01T07:37:45.019Z,102849.56
2022-12-01T07:42:47.773Z,102840.56
2022-12-01T07:47:54.378Z,102834.63
2022-12-01T07:52:57.002Z,102826.00
2022-12-01T07:58:01.175Z,102825.16
2022-12-01T08:03:03.930Z,102819.31
2022-12-01T08:08:06.930Z,102810.25
2022-12-01T08:13:12.896Z,102821.22
2022-12-01T08:18:19.753Z,102820.53
2022-12-01T08:23:22.443Z,102814.75
2022-12-01T08:28:25.443Z,102813.50
2022-12-01T08:33:29.456Z,102821.78
2022-12-01T08:38:32.506Z,102814.00
2022-12-01T08:49:04.696Z,102816.13
2022-12-01T08:54:07.680Z,102808.16
2022-12-01T08:59:10.554Z,102831.81
2022-12-01T09:04:13.211Z,102823.41
2022-12-01T09:09:19.790Z,102831.25
2022-12-01T09:14:23.316Z,102796.50
2022-12-01T09:19:26.015Z,102807.06
2022-12-01T09:24:28.792Z,102813.66
2022-12-01T09:29:32.107Z,102811.88
2022-12-01T09:34:34.782Z,102814.59
2022-12-01T09:39:37.487Z,102797.47
2022-12-01T09:44:53.268Z,102792.97
2022-12-01T09:50:12.703Z,102791.97
2022-12-01T09:55:19.420Z,102768.56
2022-12-01T10:00:25.108Z,102776.44
2022-12-01T10:05:56.563Z,102739.63
2022-12-01T10:11:13.550Z,102790.84
2022-12-01T10:16:18.839Z,102785.59
2022-12-01T10:21:59.079Z,102785.59
2022-12-01T10:27:22.178Z,102782.69
2022-12-01T10:32:33.081Z,102775.50
2022-12-01T10:37:35.860Z,102782.19
2022-12-01T10:42:43.185Z,102794.38
2022-12-01T10:48:10.509Z,102796.41
2022-12-01T10:53:32.366Z,102791.34
2022-12-01T10:58:43.350Z,102799.84
2022-12-01T11:03:50.888Z,102805.81
2022-12-01T11:09:06.383Z,102795.34
2022-12-01T11:14:21.301Z,102803.63
2022-12-01T11:19:35.947Z,102794.22
2022-12-01T11:24:44.437Z,102785.44
2022-12-01T11:29:50.406Z,102796.25
2022-12-01T11:35:04.273Z,102793.78
2022-12-01T11:40:29.327Z,102791.56
2022-12-01T11:45:35.300Z,102788.22
2022-12-01T11:50:40.250Z,102794.94
2022-12-01T11:55:42.910Z,102781.94
2022-12-01T12:00:53.069Z,102788.63
2022-12-01T12:06:38.461Z,102783.72
2022-12-01T12:11:38.282Z,102776.09
2022-12-01T12:16:53.199Z,102782.16
2022-12-01T12:22:06.404Z,102780.13
2022-12-01T12:27:31.058Z,102779.22
2022-12-01T12:32:54.855Z,102776.78
2022-12-01T12:38:29.286Z,102784.38
2022-12-01T12:43:57.917Z,102775.16
2022-12-01T12:49:25.919Z,102768.84
2022-12-01T12:54:51.344Z,102761.41
2022-12-01T13:00:15.845Z,102752.59
2022-12-01T13:05:33.248Z,102755.66
2022-12-01T13:10:45.316Z,102747.25
2022-12-01T13:15:49.737Z,102741.50
2022-12-01T13:20:52.992Z,102759.22
2022-12-01T13:25:56.670Z,102764.44
2022-12-01T13:31:06.302Z,102742.25
2022-12-01T13:36:45.199Z,102759.63
2022-12-01T13:41:40.177Z,102767.00
2022-12-01T13:46:43.091Z,102757.19
2022-12-01T13:52:19.138Z,102752.13
2022-12-01T13:57:27.787Z,102751.06
2022-12-01T14:02:32.809Z,102749.75
2022-12-01T14:07:38.252Z,102745.31
2022-12-01T14:12:45.439Z,102740.41
2022-12-01T14:17:48.849Z,102742.94
2022-12-01T14:23:05.083Z,102738.75
2022-12-01T14:28:17.196Z,102747.75
2022-12-01T14:34:02.518Z,102746.84
2022-12-01T14:39:14.132Z,102737.91
2022-12-01T14:44:37.012Z,102728.09
2022-12-01T14:50:12.166Z,102731.69
2022-12-01T14:55:21.765Z,102727.28
2022-12-01T15:00:25.542Z,102729.91
2022-12-01T15:05:30.093Z,102738.34
2022-12-01T15:10:37.285Z,102689.38
2022-12-01T15:15:51.114Z,102726.31
2022-12-01T15:20:59.357Z,102724.75
2022-12-01T15:26:02.427Z,102719.19
2022-12-01T15:31:10.287Z,102717.97
2022-12-01T15:36:13.431Z,102730.72
2022-12-01T15:41:28.992Z,102717.41
2022-12-01T15:46:34.822Z,102730.97
2022-12-01T15:51:37.652Z,102715.50
2022-12-01T15:56:41.416Z,102728.25
2022-12-01T16:01:45.676Z,102717.31
2022-12-01T16:07:07.702Z,102721.81
2022-12-01T16:12:12.992Z,102721.16
2022-12-01T16:17:17.525Z,102724.03
2022-12-01T16:22:22.271Z,102722.72
2022-12-01T16:27:27.210Z,102721.41
2022-12-01T16:32:36.898Z,102720.09
2022-12-01T16:37:40.290Z,102728.59
2022-12-01T16:42:43.107Z,102720.00
2022-12-01T16:47:47.829Z,102727.19
2022-12-01T16:52:50.448Z,102710.50
2022-12-01T16:57:55.842Z,102724.63
2022-12-01T17:02:58.963Z,102725.53
2022-12-01T17:08:01.784Z,102735.91
2022-12-01T17:13:04.529Z,102730.94
2022-12-01T17:18:07.355Z,102726.69
2022-12-01T17:23:10.152Z,102739.25
2022-12-01T17:28:12.861Z,102744.53
2022-12-01T17:33:15.516Z,102741.28
2022-12-01T17:38:18.192Z,102742.34
2022-12-01T17:43:21.288Z,102716.19
2022-12-01T17:48:23.927Z,102741.47
2022-12-01T17:53:27.165Z,102743.91
2022-12-01T17:58:31.005Z,102740.78
2022-12-01T18:03:33.747Z,102739.47
2022-12-01T18:08:37.724Z,102757.34
2022-12-01T18:13:42.576Z,102749.06
2022-12-01T18:18:45.518Z,102744.75
2022-12-01T18:23:55.352Z,102743.19
2022-12-01T18:29:09.048Z,102751.03
2022-12-01T18:34:12.760Z,102748.97
2022-12-01T18:39:16.901Z,102749.13
2022-12-01T18:44:19.567Z,102746.78
2022-12-01T18:49:22.164Z,102756.81
2022-12-01T18:54:24.923Z,102749.47
2022-12-01T18:59:27.738Z,102752.16
2022-12-01T19:04:30.763Z,102724.84
2022-12-01T19:09:33.591Z,102753.72
2022-12-01T19:14:36.482Z,102762.84
2022-12-01T19:19:39.197Z,102760.03
2022-12-01T19:24:44.872Z,102746.38
2022-12-01T19:29:52.596Z,102760.88
2022-12-01T19:34:55.663Z,102767.91
2022-12-01T19:39:58.354Z,102756.59
2022-12-01T19:45:01.645Z,102766.19
2022-12-01T19:50:07.196Z,102759.72
2022-12-01T19:55:11.038Z,102739.16
2022-12-01T20:00:14.005Z,102750.25
2022-12-01T20:05:16.904Z,102755.00
2022-12-01T20:10:20.679Z,102742.81
2022-12-01T20:15:23.337Z,102754.66
2022-12-01T20:20:26.159Z,102759.22
2022-12-01T20:25:28.801Z,102753.31
2022-12-01T20:30:31.529Z,102764.38
2022-12-01T20:35:34.281Z,102757.94
2022-12-01T20:40:37.041Z,102754.31
2022-12-01T20:45:39.725Z,102769.22
2022-12-01T20:50:42.909Z,102731.09
2022-12-01T20:55:45.789Z,102772.69
2022-12-01T21:00:49.145Z,102768.78
2022-12-01T21:05:51.898Z,102781.06
2022-12-01T21:10:54.580Z,102786.50
2022-12-01T21:16:03.450Z,102784.91
2022-12-01T21:21:25.418Z,102783.63
2022-12-01T21:26:28.233Z,102795.88
2022-12-01T21:31:32.482Z,102742.75
2022-12-01T21:36:35.413Z,102788.63
2022-12-01T21:41:38.325Z,102750.16
2022-12-01T21:46:42.720Z,102799.38
2022-12-01T21:51:45.711Z,102792.06
2022-12-01T21:56:54.040Z,102799.75
2022-12-01T22:01:57.837Z,102797.13
2022-12-01T22:07:01.265Z,102796.50
2022-12-01T22:12:13.183Z,102797.00
2022-12-01T22:17:24.554Z,102787.78
2022-12-01T22:22:32.921Z,102813.78
2022-12-01T22:27:44.295Z,102807.00
2022-12-01T22:32:56.292Z,102811.78
2022-12-01T22:38:08.978Z,102809.44
2022-12-01T22:43:28.303Z,102820.31
2022-12-01T22:48:40.276Z,102810.94
2022-12-01T22:53:44.791Z,102812.19
2022-12-01T22:58:47.772Z,102821.31
2022-12-01T23:03:50.644Z,102817.59
2022-12-01T23:08:53.585Z,102813.19
2022-12-01T23:13:56.245Z,102825.66
2022-12-01T23:18:58.743Z,102836.03
2022-12-01T23:24:02.580Z,102826.47
2022-12-01T23:29:05.232Z,102821.06
2022-12-01T23:34:17.064Z,102827.41
2022-12-01T23:39:27.391Z,102840.22
2022-12-01T23:44:41.873Z,102827.97
2022-12-01T23:49:46.191Z,102825.34
2022-12-01T23:54:49.324Z,102821.13
2022-12-01T23:59:55.067Z,102811.94
